Time;durP1;ratioP1;P1;durP2;ratioP2;P2;SDS_P1;SDS_P2;PMS_P1;PMS_P2;Temp;Humidity;BMP_temperature;BMP_pressure;BME280_temperature;BME280_humidity;BME280_pressure;Samples;Min_cycle;Max_cycle;Signal;HPM_P1;HPM_P2
2021/12/30 00:00:29;;;;;;;10.38;5.30;;;;;;;;;;5095038;28;20020;-73
2021/12/30 00:02:56;;;;;;;12.10;6.10;;;;;;;;;;5095215;28;20020;-73
2021/12/30 00:05:22;;;;;;;9.98;5.40;;;;;;;;;;5094632;28;20020;-73
2021/12/30 00:07:48;;;;;;;9.00;4.72;;;;;;;;;;5095236;28;20427;-73
2021/12/30 00:10:14;;;;;;;12.10;6.10;;;;;;;;;;5094907;28;20020;-73
2021/12/30 00:12:40;;;;;;;10.45;5.40;;;;;;;;;;5094458;28;20487;-73
2021/12/30 00:15:08;;;;;;;9.45;4.53;;;;;;;;;;5094837;28;20021;-74
2021/12/30 00:17:35;;;;;;;9.43;4.80;;;;;;;;;;5094857;28;20025;-73
2021/12/30 00:20:04;;;;;;;8.90;4.45;;;;;;;;;;5093647;28;20019;-74
2021/12/30 00:22:30;;;;;;;7.03;3.75;;;;;;;;;;5094673;28;20039;-73
2021/12/30 00:24:57;;;;;;;7.70;4.00;;;;;;;;;;5094630;28;20484;-73
2021/12/30 00:27:23;;;;;;;7.35;3.88;;;;;;;;;;5094193;28;20099;-73
2021/12/30 00:29:49;;;;;;;7.15;3.85;;;;;;;;;;5094488;28;20028;-73
2021/12/30 00:32:15;;;;;;;7.72;4.43;;;;;;;;;;5094486;28;20020;-73
2021/12/30 00:34:41;;;;;;;7.47;4.00;;;;;;;;;;5093998;28;20031;-73
2021/12/30 00:37:07;;;;;;;7.28;3.88;;;;;;;;;;5094145;28;20124;-73
2021/12/30 00:39:34;;;;;;;8.13;3.92;;;;;;;;;;5094359;28;20400;-73
2021/12/30 00:42:00;;;;;;;7.63;3.85;;;;;;;;;;5093859;28;20035;-73
2021/12/30 00:44:27;;;;;;;6.05;3.28;;;;;;;;;;5094251;28;20417;-73
2021/12/30 00:46:53;;;;;;;7.13;4.00;;;;;;;;;;5094072;28;20024;-73
2021/12/30 00:49:19;;;;;;;6.78;3.60;;;;;;;;;;5094147;28;20055;-73
2021/12/30 00:51:46;;;;;;;7.10;3.13;;;;;;;;;;5094147;28;20085;-73
2021/12/30 00:54:12;;;;;;;8.27;3.78;;;;;;;;;;5093949;28;20541;-73
2021/12/30 00:56:38;;;;;;;6.75;3.30;;;;;;;;;;5093958;28;20119;-73
2021/12/30 00:59:04;;;;;;;6.68;3.50;;;;;;;;;;5094012;28;20428;-73
2021/12/30 01:01:31;;;;;;;6.40;3.00;;;;;;;;;;5093784;28;20419;-73
2021/12/30 01:03:57;;;;;;;7.80;3.58;;;;;;;;;;5093948;28;20016;-73
2021/12/30 01:06:23;;;;;;;6.07;3.10;;;;;;;;;;5093887;28;20592;-73
2021/12/30 01:08:49;;;;;;;5.20;2.65;;;;;;;;;;5093409;28;20024;-73
2021/12/30 01:11:16;;;;;;;6.22;3.10;;;;;;;;;;5094012;28;20024;-73
2021/12/30 01:13:45;;;;;;;5.38;2.45;;;;;;;;;;5093755;28;20020;-73
2021/12/30 01:16:17;;;;;;;5.70;2.28;;;;;;;;;;5093240;28;20353;-73
2021/12/30 01:19:04;;;;;;;4.10;2.37;;;;;;;;;;5093916;28;20058;-73
2021/12/30 01:21:32;;;;;;;4.15;2.35;;;;;;;;;;5093836;28;20532;-73
2021/12/30 01:23:58;;;;;;;5.45;2.50;;;;;;;;;;5093161;28;20028;-73
2021/12/30 01:26:25;;;;;;;5.18;2.70;;;;;;;;;;5093645;28;20028;-73
2021/12/30 01:28:52;;;;;;;5.63;2.65;;;;;;;;;;5093625;28;20027;-72
2021/12/30 01:31:19;;;;;;;5.50;2.40;;;;;;;;;;5092917;28;20050;-73
2021/12/30 01:33:47;;;;;;;6.55;2.30;;;;;;;;;;5093572;28;20027;-73
2021/12/30 01:36:14;;;;;;;4.97;2.40;;;;;;;;;;5092713;28;20427;-73
2021/12/30 01:38:40;;;;;;;4.85;2.25;;;;;;;;;;5093496;28;20049;-73
2021/12/30 01:41:07;;;;;;;4.60;2.50;;;;;;;;;;5093596;28;20507;-73
2021/12/30 01:43:35;;;;;;;5.32;1.98;;;;;;;;;;5093237;28;20020;-73
2021/12/30 01:46:01;;;;;;;4.30;2.00;;;;;;;;;;5093383;28;20049;-73
2021/12/30 01:48:27;;;;;;;5.43;2.30;;;;;;;;;;5093636;28;20511;-73
2021/12/30 01:50:54;;;;;;;5.10;2.72;;;;;;;;;;5092887;28;20135;-73
2021/12/30 01:53:20;;;;;;;5.53;3.00;;;;;;;;;;5093334;28;20489;-73
2021/12/30 01:55:47;;;;;;;5.43;2.60;;;;;;;;;;5093215;28;20058;-72
2021/12/30 01:58:13;;;;;;;6.45;3.28;;;;;;;;;;5092891;28;20081;-73
2021/12/30 02:00:42;;;;;;;5.30;2.47;;;;;;;;;;5093383;28;20070;-73
2021/12/30 02:03:09;;;;;;;6.78;2.70;;;;;;;;;;5093279;28;20028;-74
2021/12/30 02:05:37;;;;;;;3.92;2.20;;;;;;;;;;5092846;28;20054;-73
2021/12/30 02:08:04;;;;;;;5.28;2.53;;;;;;;;;;5093506;28;20108;-73
2021/12/30 02:10:30;;;;;;;3.80;2.35;;;;;;;;;;5093165;28;20028;-73
2021/12/30 02:12:57;;;;;;;3.85;2.05;;;;;;;;;;5092888;28;20024;-73
2021/12/30 02:15:23;;;;;;;3.95;2.10;;;;;;;;;;5093032;28;20020;-73
2021/12/30 02:17:51;;;;;;;2.90;1.42;;;;;;;;;;5093088;28;20039;-73
2021/12/30 02:20:39;;;;;;;5.35;2.15;;;;;;;;;;5092729;28;20102;-73
2021/12/30 02:23:06;;;;;;;2.88;1.60;;;;;;;;;;5093260;28;20038;-73
2021/12/30 02:25:32;;;;;;;4.28;1.83;;;;;;;;;;5092645;28;20027;-73
2021/12/30 02:27:59;;;;;;;3.80;1.80;;;;;;;;;;5093048;28;20500;-73
2021/12/30 02:30:25;;;;;;;3.83;1.90;;;;;;;;;;5093032;28;20024;-73
2021/12/30 02:32:51;;;;;;;5.18;2.05;;;;;;;;;;5092540;28;20027;-72
2021/12/30 02:35:17;;;;;;;3.97;1.67;;;;;;;;;;5092852;28;20569;-72
2021/12/30 02:37:44;;;;;;;3.13;1.98;;;;;;;;;;5093254;28;20464;-72
2021/12/30 02:40:10;;;;;;;3.67;1.75;;;;;;;;;;5092472;28;20039;-72
2021/12/30 02:42:36;;;;;;;4.22;2.00;;;;;;;;;;5092962;28;20028;-72
2021/12/30 02:45:03;;;;;;;3.50;1.70;;;;;;;;;;5096452;28;20028;-73
2021/12/30 02:47:33;;;;;;;5.68;2.72;;;;;;;;;;5096063;28;20020;-73
2021/12/30 02:49:59;;;;;;;3.55;2.10;;;;;;;;;;5096451;28;20081;-72
2021/12/30 02:52:25;;;;;;;5.07;2.58;;;;;;;;;;5096381;28;20538;-73
2021/12/30 02:54:52;;;;;;;3.60;1.83;;;;;;;;;;5095941;28;20059;-72
2021/12/30 02:57:19;;;;;;;4.15;2.17;;;;;;;;;;5096369;28;20039;-71
2021/12/30 02:59:45;;;;;;;3.83;1.80;;;;;;;;;;5096290;28;20053;-72
2021/12/30 03:02:11;;;;;;;4.28;2.30;;;;;;;;;;5095931;28;20388;-72
2021/12/30 03:04:39;;;;;;;4.45;1.90;;;;;;;;;;5096159;28;20028;-73
2021/12/30 03:07:05;;;;;;;4.30;2.00;;;;;;;;;;5096173;28;20020;-72
2021/12/30 03:09:32;;;;;;;4.57;1.92;;;;;;;;;;5095686;28;20020;-72
2021/12/30 03:11:59;;;;;;;5.00;1.75;;;;;;;;;;5096204;28;20045;-72
2021/12/30 03:14:26;;;;;;;4.18;2.05;;;;;;;;;;5095965;28;20103;-72
2021/12/30 03:16:53;;;;;;;4.40;2.47;;;;;;;;;;5095479;28;20024;-72
2021/12/30 03:19:19;;;;;;;4.10;2.08;;;;;;;;;;5095921;28;20035;-72
2021/12/30 03:21:45;;;;;;;3.25;1.85;;;;;;;;;;5095446;28;20047;-72
2021/12/30 03:24:11;;;;;;;4.32;2.25;;;;;;;;;;5096168;28;20096;-72
2021/12/30 03:26:38;;;;;;;5.03;2.63;;;;;;;;;;5095680;28;20074;-72
2021/12/30 03:29:04;;;;;;;5.05;2.15;;;;;;;;;;5095301;28;20419;-72
2021/12/30 03:31:31;;;;;;;4.82;2.00;;;;;;;;;;5096140;28;20050;-72
2021/12/30 03:33:57;;;;;;;3.22;1.88;;;;;;;;;;5095642;28;20099;-72
2021/12/30 03:36:25;;;;;;;4.15;2.00;;;;;;;;;;5094868;28;20055;-72
2021/12/30 03:38:53;;;;;;;4.15;2.30;;;;;;;;;;5095419;28;20484;-73
2021/12/30 03:41:21;;;;;;;3.22;2.08;;;;;;;;;;5095695;28;20407;-72
2021/12/30 03:43:47;;;;;;;5.03;2.00;;;;;;;;;;5095036;28;20020;-72
2021/12/30 03:46:14;;;;;;;5.20;2.50;;;;;;;;;;5095288;28;20471;-72
2021/12/30 03:48:43;;;;;;;5.05;2.10;;;;;;;;;;5095356;28;20047;-73
2021/12/30 03:51:13;;;;;;;4.38;2.35;;;;;;;;;;5094958;28;20473;-72
2021/12/30 03:53:41;;;;;;;5.43;2.53;;;;;;;;;;5095187;28;20031;-72
2021/12/30 03:56:08;;;;;;;4.55;2.50;;;;;;;;;;5095215;28;20400;-72
2021/12/30 03:58:35;;;;;;;5.55;2.45;;;;;;;;;;5094678;28;20384;-72
2021/12/30 04:01:01;;;;;;;5.03;2.70;;;;;;;;;;5095106;28;20028;-72
2021/12/30 04:03:28;;;;;;;7.93;2.75;;;;;;;;;;5095035;28;20031;-72
2021/12/30 04:05:54;;;;;;;5.47;2.70;;;;;;;;;;5094555;28;20024;-72
2021/12/30 04:08:20;;;;;;;5.50;2.90;;;;;;;;;;5095266;28;20024;-73
2021/12/30 04:10:46;;;;;;;7.07;3.53;;;;;;;;;;5094899;28;20025;-72
2021/12/30 04:13:14;;;;;;;6.88;3.08;;;;;;;;;;5094413;28;20082;-72
2021/12/30 04:15:40;;;;;;;7.40;3.35;;;;;;;;;;5094856;28;20028;-72
2021/12/30 04:18:06;;;;;;;5.72;3.03;;;;;;;;;;5094398;28;20024;-72
2021/12/30 04:20:32;;;;;;;5.68;3.08;;;;;;;;;;5094802;28;20077;-72
2021/12/30 04:22:58;;;;;;;5.68;2.88;;;;;;;;;;5094942;28;20031;-72
2021/12/30 04:25:25;;;;;;;3.72;2.53;;;;;;;;;;5094261;28;20097;-72
2021/12/30 04:27:51;;;;;;;5.63;2.80;;;;;;;;;;5094845;28;20023;-72
2021/12/30 04:30:17;;;;;;;5.13;2.72;;;;;;;;;;5094556;28;20031;-72
2021/12/30 04:32:45;;;;;;;4.80;2.78;;;;;;;;;;5094125;28;20020;-72
2021/12/30 04:35:12;;;;;;;5.45;2.95;;;;;;;;;;5094200;28;20169;-72
2021/12/30 04:37:38;;;;;;;5.88;2.92;;;;;;;;;;5094424;28;20039;-72
2021/12/30 04:40:05;;;;;;;6.28;3.25;;;;;;;;;;5094045;28;20091;-72
2021/12/30 04:42:31;;;;;;;6.95;3.38;;;;;;;;;;5094450;28;20027;-72
2021/12/30 04:44:58;;;;;;;6.68;3.10;;;;;;;;;;5094277;28;20476;-72
2021/12/30 04:47:25;;;;;;;7.40;3.88;;;;;;;;;;5094006;28;20055;-72
2021/12/30 04:49:52;;;;;;;6.07;3.30;;;;;;;;;;5094172;28;20428;-73
2021/12/30 04:52:19;;;;;;;5.22;3.38;;;;;;;;;;5094138;28;20026;-72
2021/12/30 04:54:45;;;;;;;9.77;4.38;;;;;;;;;;5093728;28;20036;-72
2021/12/30 04:57:12;;;;;;;9.23;4.68;;;;;;;;;;5093959;28;20028;-72
2021/12/30 04:59:38;;;;;;;6.38;3.80;;;;;;;;;;5094171;28;20037;-72
2021/12/30 05:02:04;;;;;;;5.65;3.58;;;;;;;;;;5093611;28;20052;-73
2021/12/30 05:04:31;;;;;;;7.75;3.97;;;;;;;;;;5093948;28;20024;-73
2021/12/30 05:06:57;;;;;;;6.38;3.88;;;;;;;;;;5093538;28;20103;-71
2021/12/30 05:09:23;;;;;;;7.60;3.65;;;;;;;;;;5093426;28;20484;-71
2021/12/30 05:11:49;;;;;;;7.47;3.70;;;;;;;;;;5094030;28;20028;-70
2021/12/30 05:14:15;;;;;;;7.13;4.18;;;;;;;;;;5093664;28;20461;-71
2021/12/30 05:16:42;;;;;;;6.95;3.97;;;;;;;;;;5093660;28;20039;-73
2021/12/30 05:19:08;;;;;;;9.82;4.30;;;;;;;;;;5093786;28;20505;-72
2021/12/30 05:21:34;;;;;;;10.48;4.35;;;;;;;;;;5093745;28;20389;-71
2021/12/30 05:24:01;;;;;;;7.50;4.30;;;;;;;;;;5094089;28;20058;-70
2021/12/30 05:26:28;;;;;;;9.05;4.20;;;;;;;;;;5093604;28;20095;-69
2021/12/30 05:28:55;;;;;;;8.52;4.57;;;;;;;;;;5093104;28;20094;-70
2021/12/30 05:31:21;;;;;;;7.18;4.40;;;;;;;;;;5093639;28;20388;-70
2021/12/30 05:33:48;;;;;;;10.05;4.82;;;;;;;;;;5093772;28;20020;-69
2021/12/30 05:36:14;;;;;;;8.90;4.68;;;;;;;;;;5092917;28;20044;-71
2021/12/30 05:38:40;;;;;;;10.27;5.93;;;;;;;;;;5093793;28;20023;-71
2021/12/30 05:41:06;;;;;;;12.60;5.03;;;;;;;;;;5093498;28;20031;-71
2021/12/30 05:43:32;;;;;;;11.65;5.82;;;;;;;;;;5093053;28;20508;-71
2021/12/30 05:45:59;;;;;;;8.98;5.40;;;;;;;;;;5093517;28;20020;-71
2021/12/30 05:48:25;;;;;;;8.27;4.18;;;;;;;;;;5093399;28;20024;-72
2021/12/30 05:50:51;;;;;;;6.90;3.78;;;;;;;;;;5092961;28;20024;-71
2021/12/30 05:53:17;;;;;;;8.52;4.30;;;;;;;;;;5093408;28;20537;-71
2021/12/30 05:55:43;;;;;;;8.18;3.70;;;;;;;;;;5093284;28;20114;-71
2021/12/30 05:58:10;;;;;;;6.82;3.53;;;;;;;;;;5092925;28;20095;-71
2021/12/30 06:00:36;;;;;;;11.90;5.55;;;;;;;;;;5093424;28;20017;-71
2021/12/30 06:03:02;;;;;;;11.05;6.05;;;;;;;;;;5093468;28;20115;-72
2021/12/30 06:05:28;;;;;;;13.02;6.07;;;;;;;;;;5092972;28;20028;-72
2021/12/30 06:07:54;;;;;;;14.45;7.32;;;;;;;;;;5093012;28;20066;-72
2021/12/30 06:10:21;;;;;;;15.15;7.53;;;;;;;;;;5092828;28;20128;-72
2021/12/30 06:12:47;;;;;;;12.50;5.78;;;;;;;;;;5088578;28;20463;-70
2021/12/30 06:15:14;;;;;;;12.20;6.07;;;;;;;;;;5092540;28;20404;-70
2021/12/30 06:17:41;;;;;;;9.48;4.97;;;;;;;;;;5092408;28;20092;-68
2021/12/30 06:20:08;;;;;;;8.75;4.30;;;;;;;;;;5096610;28;20032;-70
2021/12/30 06:22:35;;;;;;;9.25;4.82;;;;;;;;;;5095087;28;20038;-66
2021/12/30 06:25:01;;;;;;;10.02;4.97;;;;;;;;;;5095815;28;20098;-69
2021/12/30 06:27:36;;;;;;;8.88;4.80;;;;;;;;;;5096095;28;20469;-71
2021/12/30 06:30:03;;;;;;;9.77;4.97;;;;;;;;;;5095149;28;20120;-73
2021/12/30 06:32:39;;;;;;;7.47;4.22;;;;;;;;;;5096643;28;20162;-70
2021/12/30 06:35:28;;;;;;;10.52;5.78;;;;;;;;;;5097412;28;20030;-72
2021/12/30 06:37:54;;;;;;;12.52;5.95;;;;;;;;;;5095922;28;20032;-71
2021/12/30 06:40:20;;;;;;;7.57;4.32;;;;;;;;;;5091451;28;20032;-68
2021/12/30 06:42:47;;;;;;;9.68;5.93;;;;;;;;;;5095682;28;20024;-69
2021/12/30 06:45:13;;;;;;;9.15;5.75;;;;;;;;;;5096156;28;20024;-67
2021/12/30 06:47:40;;;;;;;10.43;5.30;;;;;;;;;;5095698;28;20028;-68
2021/12/30 06:50:07;;;;;;;11.75;5.53;;;;;;;;;;5095443;28;20476;-68
2021/12/30 06:52:34;;;;;;;10.90;5.65;;;;;;;;;;5094548;28;20024;-70
2021/12/30 06:55:00;;;;;;;6.22;3.45;;;;;;;;;;5095523;28;20047;-67
2021/12/30 06:57:28;;;;;;;9.18;4.72;;;;;;;;;;5095862;28;20496;-68
2021/12/30 06:59:55;;;;;;;8.98;4.63;;;;;;;;;;5095197;28;20050;-68
2021/12/30 07:02:21;;;;;;;10.27;5.68;;;;;;;;;;5089855;28;20020;-69
2021/12/30 07:04:47;;;;;;;10.02;4.93;;;;;;;;;;5074298;28;20044;-68
2021/12/30 07:07:24;;;;;;;12.98;6.68;;;;;;;;;;5087236;28;20039;-70
2021/12/30 07:09:50;;;;;;;12.45;5.47;;;;;;;;;;5094084;28;20031;-70
2021/12/30 07:12:16;;;;;;;8.65;4.78;;;;;;;;;;5093669;28;20400;-69
2021/12/30 07:14:42;;;;;;;9.88;5.03;;;;;;;;;;5094464;28;20027;-69
2021/12/30 07:17:09;;;;;;;11.85;5.43;;;;;;;;;;5094457;28;20028;-70
2021/12/30 07:19:35;;;;;;;11.00;5.68;;;;;;;;;;5095110;28;20029;-71
2021/12/30 07:22:01;;;;;;;11.23;5.88;;;;;;;;;;5092419;28;20431;-70
2021/12/30 07:24:27;;;;;;;13.50;7.35;;;;;;;;;;5091612;28;20550;-71
2021/12/30 07:26:54;;;;;;;9.82;5.20;;;;;;;;;;5093802;28;20047;-70
2021/12/30 07:29:20;;;;;;;13.35;7.85;;;;;;;;;;5090340;28;20020;-70
2021/12/30 07:31:46;;;;;;;11.52;6.75;;;;;;;;;;5083193;28;20422;-68
2021/12/30 07:34:12;;;;;;;11.93;7.05;;;;;;;;;;5076478;28;20035;-68
2021/12/30 07:36:38;;;;;;;13.25;7.18;;;;;;;;;;5091521;28;20048;-69
2021/12/30 07:39:05;;;;;;;11.55;5.93;;;;;;;;;;5067070;28;20024;-69
2021/12/30 07:41:31;;;;;;;11.73;6.65;;;;;;;;;;5080886;28;20016;-71
2021/12/30 07:43:57;;;;;;;10.90;6.05;;;;;;;;;;5072848;28;20111;-69
2021/12/30 07:46:24;;;;;;;8.75;5.10;;;;;;;;;;5092025;28;20070;-70
2021/12/30 07:48:50;;;;;;;9.48;5.47;;;;;;;;;;5089318;28;20024;-70
2021/12/30 07:51:16;;;;;;;8.15;4.70;;;;;;;;;;5088222;28;20028;-71
2021/12/30 07:53:42;;;;;;;11.10;6.25;;;;;;;;;;5087305;28;20023;-71
2021/12/30 07:56:08;;;;;;;9.52;5.47;;;;;;;;;;5085774;28;20449;-70
2021/12/30 07:58:35;;;;;;;8.95;4.35;;;;;;;;;;5088852;28;20024;-68
2021/12/30 08:01:01;;;;;;;9.18;4.88;;;;;;;;;;5090447;28;20372;-70
2021/12/30 08:03:27;;;;;;;12.93;5.80;;;;;;;;;;5090534;28;20161;-66
2021/12/30 08:05:54;;;;;;;8.98;4.82;;;;;;;;;;5083021;28;20358;-69
2021/12/30 08:08:20;;;;;;;10.43;4.45;;;;;;;;;;5081781;28;20027;-67
2021/12/30 08:10:46;;;;;;;10.00;5.78;;;;;;;;;;5091417;28;20035;-68
2021/12/30 08:13:12;;;;;;;8.65;4.75;;;;;;;;;;5089728;28;20497;-70
2021/12/30 08:15:39;;;;;;;7.75;3.67;;;;;;;;;;5091770;28;20035;-69
2021/12/30 08:18:05;;;;;;;12.63;4.00;;;;;;;;;;5092250;28;20095;-67
2021/12/30 08:20:31;;;;;;;6.20;3.78;;;;;;;;;;5092720;28;20016;-69
2021/12/30 08:22:57;;;;;;;9.88;5.25;;;;;;;;;;5092906;28;20058;-70
2021/12/30 08:25:24;;;;;;;8.82;5.22;;;;;;;;;;5093543;28;20031;-70
2021/12/30 08:27:50;;;;;;;10.70;5.65;;;;;;;;;;5093540;28;20052;-70
2021/12/30 08:30:17;;;;;;;8.15;5.07;;;;;;;;;;5093405;28;20053;-70
2021/12/30 08:32:45;;;;;;;11.30;5.97;;;;;;;;;;5093534;28;20377;-71
2021/12/30 08:35:12;;;;;;;7.05;3.92;;;;;;;;;;5092823;28;20101;-70
2021/12/30 08:37:38;;;;;;;12.38;6.28;;;;;;;;;;5092359;28;20055;-71
2021/12/30 08:40:06;;;;;;;13.93;7.10;;;;;;;;;;5091580;28;20021;-70
2021/12/30 08:42:32;;;;;;;12.02;6.57;;;;;;;;;;5091653;28;20028;-71
2021/12/30 08:44:59;;;;;;;11.50;6.05;;;;;;;;;;5092766;28;20020;-70
2021/12/30 08:47:26;;;;;;;16.02;7.28;;;;;;;;;;5091726;28;20020;-71
2021/12/30 08:49:53;;;;;;;18.63;9.38;;;;;;;;;;5092354;28;20020;-69
2021/12/30 08:52:21;;;;;;;21.77;10.95;;;;;;;;;;5091259;28;20023;-71
2021/12/30 08:54:47;;;;;;;16.52;9.30;;;;;;;;;;5091238;28;20028;-70
2021/12/30 08:57:14;;;;;;;12.38;7.03;;;;;;;;;;5093635;28;20040;-73
2021/12/30 08:59:41;;;;;;;15.55;8.50;;;;;;;;;;5093561;28;20067;-74
2021/12/30 09:02:07;;;;;;;15.88;8.45;;;;;;;;;;5104555;28;20378;-74
2021/12/30 09:04:34;;;;;;;11.23;7.13;;;;;;;;;;5093350;28;20024;-78
2021/12/30 09:07:00;;;;;;;12.30;6.88;;;;;;;;;;5093302;28;20028;-76
2021/12/30 09:09:27;;;;;;;12.75;7.18;;;;;;;;;;5093029;28;20101;-73
2021/12/30 09:11:54;;;;;;;10.80;6.10;;;;;;;;;;5093438;28;20046;-74
2021/12/30 09:14:20;;;;;;;10.98;5.85;;;;;;;;;;5092834;28;20024;-77
2021/12/30 09:16:48;;;;;;;13.07;6.22;;;;;;;;;;5092007;28;20146;-72
2021/12/30 09:19:15;;;;;;;13.43;8.13;;;;;;;;;;5092999;28;20031;-71
2021/12/30 09:21:41;;;;;;;7.68;3.97;;;;;;;;;;5092721;28;20062;-74
2021/12/30 09:24:08;;;;;;;9.18;4.97;;;;;;;;;;5093546;28;20372;-75
2021/12/30 09:26:35;;;;;;;10.63;4.25;;;;;;;;;;5093431;28;20051;-76
2021/12/30 09:29:01;;;;;;;10.00;6.18;;;;;;;;;;5092946;28;20476;-74
2021/12/30 09:31:28;;;;;;;9.40;4.80;;;;;;;;;;5092220;28;20110;-75
2021/12/30 09:33:57;;;;;;;10.32;5.03;;;;;;;;;;5089822;28;20020;-75
2021/12/30 09:36:26;;;;;;;11.10;4.65;;;;;;;;;;5107077;28;20146;-75
2021/12/30 09:38:53;;;;;;;10.43;4.88;;;;;;;;;;5091999;28;20028;-78
2021/12/30 09:41:19;;;;;;;12.00;4.80;;;;;;;;;;5092141;28;20047;-75
2021/12/30 09:44:31;;;;;;;11.45;4.90;;;;;;;;;;5110956;27;20396;-74
2021/12/30 09:49:00;;;;;;;11.77;5.88;;;;;;;;;;5069982;28;20391;-75
2021/12/30 09:52:02;;;;;;;7.30;4.38;;;;;;;;;;5110065;27;20388;-74
2021/12/30 09:54:28;;;;;;;9.38;4.53;;;;;;;;;;5110675;28;20089;-75
2021/12/30 09:56:54;;;;;;;8.45;4.78;;;;;;;;;;5110601;28;20081;-73
2021/12/30 09:59:23;;;;;;;8.75;4.47;;;;;;;;;;5108657;28;20035;-74
2021/12/30 10:03:28;;;;;;;8.70;4.10;;;;;;;;;;5109441;27;20454;-74
2021/12/30 10:06:04;;;;;;;10.20;4.55;;;;;;;;;;5105609;28;20035;-72
2021/12/30 10:09:09;;;;;;;9.00;4.75;;;;;;;;;;5113961;27;20383;-72
2021/12/30 10:11:52;;;;;;;16.75;7.03;;;;;;;;;;5108721;28;20036;-74
2021/12/30 10:14:39;;;;;;;15.27;7.32;;;;;;;;;;5109821;27;20477;-71
2021/12/30 10:17:21;;;;;;;15.07;7.40;;;;;;;;;;5107937;28;20081;-72
2021/12/30 10:19:47;;;;;;;13.25;6.10;;;;;;;;;;5083561;28;20388;-73
2021/12/30 10:22:16;;;;;;;11.30;5.35;;;;;;;;;;5086338;28;20591;-67
2021/12/30 10:25:49;;;;;;;8.38;4.40;;;;;;;;;;5106746;27;20435;-66
2021/12/30 10:29:43;;;;;;;8.55;4.70;;;;;;;;;;5107779;27;20397;-77
2021/12/30 10:33:45;;;;;;;11.77;6.38;;;;;;;;;;5107702;27;20458;-75
2021/12/30 10:36:19;;;;;;;10.18;5.65;;;;;;;;;;5083240;28;20028;-74
2021/12/30 10:38:45;;;;;;;11.55;6.53;;;;;;;;;;5089508;28;20039;-73
2021/12/30 10:41:11;;;;;;;9.48;4.40;;;;;;;;;;5088617;28;20031;-75
2021/12/30 10:43:44;;;;;;;12.95;5.43;;;;;;;;;;5089074;28;20384;-74
2021/12/30 10:48:11;;;;;;;9.65;5.07;;;;;;;;;;5108375;27;20389;-73
2021/12/30 10:54:44;;;;;;;10.55;5.50;;;;;;;;;;5107477;27;20389;-76
2021/12/30 10:57:11;;;;;;;10.73;4.85;;;;;;;;;;5107380;28;20027;-75
2021/12/30 10:59:39;;;;;;;9.27;5.13;;;;;;;;;;5106370;28;20609;-75
2021/12/30 11:02:32;;;;;;;10.77;5.20;;;;;;;;;;5108059;27;20446;-74
2021/12/30 11:05:04;;;;;;;16.70;7.95;;;;;;;;;;5109043;28;20024;-73
2021/12/30 11:07:30;;;;;;;11.38;5.13;;;;;;;;;;5109892;28;20096;-73
2021/12/30 11:09:58;;;;;;;12.27;5.93;;;;;;;;;;5107660;28;20027;-70
2021/12/30 11:17:33;;;;;;;7.75;3.95;;;;;;;;;;5109150;27;20461;-72
2021/12/30 11:21:08;;;;;;;8.35;4.30;;;;;;;;;;5064234;28;20387;-78
2021/12/30 11:25:05;;;;;;;11.02;5.78;;;;;;;;;;5110840;27;20812;-76
2021/12/30 11:27:32;;;;;;;11.18;5.13;;;;;;;;;;5110591;28;20028;-76
2021/12/30 11:30:01;;;;;;;13.02;4.32;;;;;;;;;;5109436;28;20020;-76
2021/12/30 11:32:29;;;;;;;11.10;5.43;;;;;;;;;;5111165;28;20031;-76
2021/12/30 11:35:52;;;;;;;10.73;5.80;;;;;;;;;;5131403;27;20108;-77
2021/12/30 11:40:12;;;;;;;10.63;4.88;;;;;;;;;;5111125;27;20389;-76
2021/12/30 11:43:42;;;;;;;9.32;5.05;;;;;;;;;;5109461;27;20457;-71
2021/12/30 11:46:28;;;;;;;12.27;5.93;;;;;;;;;;5109923;28;20027;-70
2021/12/30 11:48:55;;;;;;;9.98;4.40;;;;;;;;;;5109792;28;20069;-70
2021/12/30 11:51:23;;;;;;;10.30;4.47;;;;;;;;;;5108689;28;20467;-72
2021/12/30 11:53:52;;;;;;;6.47;3.80;;;;;;;;;;5110051;28;20024;-73
2021/12/30 11:57:26;;;;;;;9.57;4.50;;;;;;;;;;5110414;27;20393;-72
2021/12/30 12:00:34;;;;;;;10.32;5.55;;;;;;;;;;5111210;27;20892;-71
2021/12/30 12:08:56;;;;;;;8.07;4.78;;;;;;;;;;5111046;27;20392;-72
2021/12/30 12:11:23;;;;;;;9.25;4.90;;;;;;;;;;5110643;28;20032;-72
2021/12/30 12:19:06;;;;;;;10.40;5.82;;;;;;;;;;5111113;27;20446;-73
2021/12/30 12:21:40;;;;;;;10.45;5.72;;;;;;;;;;5110931;28;20065;-73
2021/12/30 12:24:21;;;;;;;9.20;4.72;;;;;;;;;;5110587;28;20016;-72
2021/12/30 12:26:50;;;;;;;8.93;4.95;;;;;;;;;;5110807;28;20020;-74
2021/12/30 12:29:22;;;;;;;11.45;6.03;;;;;;;;;;5110695;28;20031;-73
2021/12/30 12:32:54;;;;;;;12.45;5.30;;;;;;;;;;5111029;27;20388;-74
2021/12/30 12:35:20;;;;;;;11.07;6.13;;;;;;;;;;5111089;28;20361;-72
2021/12/30 12:37:48;;;;;;;10.68;5.97;;;;;;;;;;5110778;28;20028;-72
2021/12/30 12:40:53;;;;;;;10.73;5.50;;;;;;;;;;5131702;27;20112;-72
2021/12/30 12:47:15;;;;;;;9.98;5.43;;;;;;;;;;5111219;27;20897;-70
2021/12/30 12:49:42;;;;;;;12.73;6.75;;;;;;;;;;5111138;28;20032;-69
2021/12/30 12:52:09;;;;;;;11.32;6.75;;;;;;;;;;5110819;28;20476;-70
2021/12/30 12:54:37;;;;;;;11.55;6.65;;;;;;;;;;5110716;28;20031;-70
2021/12/30 12:57:22;;;;;;;11.60;5.72;;;;;;;;;;5110776;28;20094;-69
2021/12/30 12:59:48;;;;;;;13.52;7.80;;;;;;;;;;5110386;28;20097;-70
2021/12/30 13:06:46;;;;;;;12.80;7.25;;;;;;;;;;5110998;27;20385;-75
2021/12/30 13:09:16;;;;;;;15.98;7.30;;;;;;;;;;5111028;28;20361;-75
2021/12/30 13:12:43;;;;;;;11.32;6.28;;;;;;;;;;5110228;27;20385;-76
2021/12/30 13:16:26;;;;;;;12.00;6.88;;;;;;;;;;5111911;27;20400;-80
2021/12/30 13:19:59;;;;;;;17.02;8.60;;;;;;;;;;5111480;27;20393;-81
2021/12/30 13:23:08;;;;;;;15.25;8.25;;;;;;;;;;5111722;27;20392;-80
2021/12/30 13:25:58;;;;;;;16.20;8.57;;;;;;;;;;5111921;27;20389;-80
2021/12/30 13:30:23;;;;;;;13.70;7.78;;;;;;;;;;5111906;27;20393;-78
2021/12/30 13:37:16;;;;;;;11.88;7.20;;;;;;;;;;5111861;27;20396;-77
2021/12/30 13:39:43;;;;;;;18.00;11.40;;;;;;;;;;5111221;28;20376;-76
2021/12/30 13:42:17;;;;;;;13.85;8.40;;;;;;;;;;5110757;28;20020;-77
2021/12/30 13:45:04;;;;;;;14.43;8.52;;;;;;;;;;5111321;27;20393;-78
2021/12/30 13:47:39;;;;;;;12.80;7.63;;;;;;;;;;5111213;28;20020;-78
2021/12/30 13:50:17;;;;;;;16.25;10.07;;;;;;;;;;5111347;28;20020;-78
2021/12/30 13:52:45;;;;;;;14.90;9.70;;;;;;;;;;5109795;28;20027;-77
2021/12/30 13:55:37;;;;;;;20.48;11.38;;;;;;;;;;5111327;27;20392;-77
2021/12/30 14:00:05;;;;;;;15.82;9.23;;;;;;;;;;5050723;28;20401;-78
2021/12/30 14:02:31;;;;;;;13.70;8.30;;;;;;;;;;5048998;28;20030;-78
2021/12/30 14:06:55;;;;;;;18.08;11.07;;;;;;;;;;5111331;27;20734;-77
2021/12/30 14:09:21;;;;;;;12.73;8.43;;;;;;;;;;5110792;28;20052;-78
2021/12/30 14:13:10;;;;;;;15.57;8.20;;;;;;;;;;5112088;27;20396;-78
2021/12/30 14:15:54;;;;;;;12.82;6.85;;;;;;;;;;5111146;27;20730;-76
2021/12/30 14:20:39;;;;;;;16.42;9.93;;;;;;;;;;5111484;27;20802;-77
2021/12/30 14:24:15;;;;;;;19.27;11.55;;;;;;;;;;5110672;27;20396;-78
2021/12/30 14:26:44;;;;;;;16.60;9.85;;;;;;;;;;5111184;28;20024;-77
2021/12/30 14:30:30;;;;;;;26.33;13.57;;;;;;;;;;5111142;27;20739;-76
2021/12/30 14:32:57;;;;;;;22.02;12.82;;;;;;;;;;5109790;28;20396;-76
2021/12/30 14:35:26;;;;;;;21.58;13.18;;;;;;;;;;5111332;28;20024;-76
2021/12/30 14:38:08;;;;;;;18.33;11.20;;;;;;;;;;5110695;27;20385;-76
2021/12/30 14:40:34;;;;;;;17.67;11.35;;;;;;;;;;5110995;28;20034;-75
2021/12/30 14:43:01;;;;;;;18.40;11.27;;;;;;;;;;5110992;28;20019;-78
2021/12/30 14:45:34;;;;;;;15.10;10.55;;;;;;;;;;5109395;28;20028;-77
2021/12/30 14:48:03;;;;;;;20.83;11.18;;;;;;;;;;5111139;28;20036;-77
2021/12/30 14:50:30;;;;;;;17.30;10.27;;;;;;;;;;5110893;28;20020;-78
2021/12/30 14:52:59;;;;;;;19.85;10.80;;;;;;;;;;5110646;28;20023;-74
2021/12/30 14:55:28;;;;;;;22.73;12.30;;;;;;;;;;5111165;28;20038;-76
2021/12/30 14:57:56;;;;;;;20.48;11.63;;;;;;;;;;5110905;28;20077;-76
2021/12/30 15:00:24;;;;;;;14.90;9.40;;;;;;;;;;5110835;28;20081;-77
2021/12/30 15:02:50;;;;;;;15.45;8.85;;;;;;;;;;5110630;28;20381;-77
2021/12/30 15:05:17;;;;;;;13.75;9.20;;;;;;;;;;5110479;28;20052;-77
2021/12/30 15:07:44;;;;;;;20.08;10.07;;;;;;;;;;5110642;28;20020;-74
2021/12/30 15:10:11;;;;;;;15.40;9.95;;;;;;;;;;5110990;28;20038;-76
2021/12/30 15:12:38;;;;;;;17.63;11.25;;;;;;;;;;5110185;28;20024;-75
2021/12/30 15:15:05;;;;;;;18.40;10.88;;;;;;;;;;5110462;28;20085;-75
2021/12/30 15:17:32;;;;;;;17.08;9.93;;;;;;;;;;5110474;28;20111;-74
2021/12/30 15:19:58;;;;;;;17.67;9.80;;;;;;;;;;5110242;28;20102;-76
2021/12/30 15:22:25;;;;;;;16.60;9.48;;;;;;;;;;5110630;28;20052;-75
2021/12/30 15:24:51;;;;;;;20.38;11.82;;;;;;;;;;5110659;28;20027;-76
2021/12/30 15:27:17;;;;;;;17.55;11.05;;;;;;;;;;5109926;28;20062;-75
2021/12/30 15:29:44;;;;;;;25.00;13.50;;;;;;;;;;5110530;28;20052;-75
2021/12/30 15:32:11;;;;;;;22.95;11.70;;;;;;;;;;5110204;28;20101;-75
2021/12/30 15:34:37;;;;;;;19.08;11.20;;;;;;;;;;5109790;28;20032;-75
2021/12/30 15:37:04;;;;;;;19.85;11.27;;;;;;;;;;5108595;28;20044;-75
2021/12/30 15:39:30;;;;;;;19.08;11.30;;;;;;;;;;5110171;28;20019;-76
2021/12/30 15:41:57;;;;;;;19.65;10.77;;;;;;;;;;5109647;28;20028;-76
2021/12/30 15:44:23;;;;;;;21.92;12.20;;;;;;;;;;5109938;28;20471;-75
2021/12/30 15:46:49;;;;;;;17.15;10.95;;;;;;;;;;5109930;28;20024;-76
2021/12/30 15:49:16;;;;;;;18.75;11.15;;;;;;;;;;5097100;28;20372;-77